CheckWX is a tool to help pilots better visualize weather data.  It is not intended as a substitute for an official pre-flight weather briefing.

22:34:44 UTC

KHAF METAR
Half Moon Bay Airport
Half Moon Bay, California, USA
Current

20 mins ago

KHAF 222215Z AUTO 32009KT 7SM CLR 14/10 A3023 RMK AO2
Observed
Jan-22 @ 22:15 UTC
Wind
  • 320° at 9 KTS
Visibility
7 SM
Flight Rules
VFR
Cloud Levels
  • Clear skies
Temperature
14°C / 57°F
Dewpoint
10°C / 50°F
Humidity
77%
Altimeter
30.23" Hg
Pressure
1023.72 hPa
Previous

35 mins ago

KHAF 222200Z AUTO 31008KT 5SM HZ CLR 14/11 A3023 RMK AO2
Observed
Jan-22 @ 22:00 UTC
Wind
  • 310° at 8 KTS
Visibility
5 SM
Flight Rules
MVFR
Conditions
Haze
Cloud Levels
  • Clear skies
Temperature
14°C / 57°F
Dewpoint
11°C / 52°F
Humidity
82%
Altimeter
30.23" Hg
Pressure
1023.72 hPa
Previous

55 mins ago

KHAF 222140Z AUTO 30008KT 5SM HZ CLR 14/11 A3024 RMK AO2
Observed
Jan-22 @ 21:40 UTC
Wind
  • 300° at 8 KTS
Visibility
5 SM
Flight Rules
MVFR
Conditions
Haze
Cloud Levels
  • Clear skies
Temperature
14°C / 57°F
Dewpoint
11°C / 52°F
Humidity
82%
Altimeter
30.24" Hg
Pressure
1024.02 hPa